Time;durP1;ratioP1;P1;durP2;ratioP2;P2;SDS_P1;SDS_P2;PMS_P1;PMS_P2;Temp;Humidity;BMP_temperature;BMP_pressure;BME280_temperature;BME280_humidity;BME280_pressure;Samples;Min_cycle;Max_cycle;Signal;HPM_P1;HPM_P2
2022/03/13 00:00:22;;;;;;;4.37;2.87;;;11.70;1.00;;;;;;6166242;23;20150;-92
2022/03/13 00:03:10;;;;;;;3.57;2.50;;;11.60;1.00;;;;;;6190535;23;20502;-93
2022/03/13 00:05:57;;;;;;;4.63;3.20;;;11.70;99.90;;;;;;6166625;23;20145;-92
2022/03/13 00:08:38;;;;;;;4.03;3.10;;;11.70;99.90;;;;;;6166665;23;20153;-91
2022/03/13 00:14:22;;;;;;;4.47;3.10;;;11.60;1.00;;;;;;6179813;23;20660;-93
2022/03/13 00:16:55;;;;;;;3.83;2.80;;;11.70;99.90;;;;;;6167560;23;20196;-92
2022/03/13 00:19:44;;;;;;;4.77;3.37;;;11.60;1.00;;;;;;6160191;23;20310;-91
2022/03/13 00:22:46;;;;;;;5.60;3.20;;;11.70;99.90;;;;;;6187521;22;20126;-92
2022/03/13 00:25:20;;;;;;;4.53;3.10;;;11.70;99.90;;;;;;6188187;22;20136;-92
2022/03/13 00:27:49;;;;;;;4.07;3.10;;;11.70;99.90;;;;;;6186547;23;20140;-91
2022/03/13 00:30:35;;;;;;;4.17;3.00;;;11.70;56.50;;;;;;6202680;22;20126;-90
2022/03/13 00:33:11;;;;;;;5.27;3.30;;;11.60;1.00;;;;;;6174351;23;20189;-92
2022/03/13 00:35:52;;;;;;;4.63;3.30;;;11.60;1.00;;;;;;6165953;23;20146;-92
2022/03/13 00:38:25;;;;;;;5.77;3.43;;;11.50;1.00;;;;;;6166350;23;20160;-91
2022/03/13 00:41:37;;;;;;;5.07;3.03;;;11.50;99.90;;;;;;6164361;23;20165;-91
2022/03/13 00:44:31;;;;;;;5.30;3.07;;;11.40;99.90;;;;;;6135230;23;20165;-92
2022/03/13 00:47:02;;;;;;;5.87;3.60;;;11.50;99.90;;;;;;6164493;23;20153;-92
2022/03/13 00:49:38;;;;;;;4.27;3.47;;;11.50;99.90;;;;;;6163799;23;20154;-92
2022/03/13 00:52:35;;;;;;;3.93;3.13;;;11.50;99.90;;;;;;6166692;23;20197;-92
2022/03/13 00:55:22;;;;;;;5.67;3.67;;;11.40;99.90;;;;;;6190737;23;20184;-92
2022/03/13 00:58:00;;;;;;;4.60;3.50;;;11.50;99.90;;;;;;6199046;22;20161;-91
2022/03/13 01:01:09;;;;;;;4.63;3.20;;;11.40;99.90;;;;;;6165999;23;20150;-92
2022/03/13 01:04:26;;;;;;;;;;;;;;;;;;;;;
2022/03/13 01:06:59;;;;;;;6.87;3.67;;;11.50;99.90;;;;;;6209003;22;20157;-91
2022/03/13 01:09:37;;;;;;;6.27;4.37;;;11.50;99.90;;;;;;6165794;23;20154;-92
2022/03/13 01:13:10;;;;;;;;;;;;;;;;;;;;;
2022/03/13 01:18:31;;;;;;;4.00;3.20;;;11.40;1.00;;;;;;6207756;23;20201;-91
2022/03/13 01:21:30;;;;;;;4.80;3.20;;;11.50;99.90;;;;;;6179524;23;20192;-92
2022/03/13 01:25:13;;;;;;;4.73;3.53;;;11.50;99.90;;;;;;6177858;23;20233;-92
2022/03/13 01:31:42;;;;;;;4.87;3.33;;;11.50;1.00;;;;;;6087423;23;20167;-92
2022/03/13 01:34:34;;;;;;;5.77;3.30;;;11.60;99.90;;;;;;6060401;23;20168;-92
2022/03/13 01:37:49;;;;;;;4.53;3.40;;;11.50;1.00;;;;;;6192963;23;20153;-91
2022/03/13 01:41:08;;;;;;;4.73;3.47;;;11.50;1.00;;;;;;6176122;23;20164;-92
2022/03/13 01:43:40;;;;;;;4.20;3.37;;;11.50;1.00;;;;;;6153004;23;20162;-92
2022/03/13 01:46:46;;;;;;;4.37;3.40;;;11.40;1.00;;;;;;6165962;23;20571;-92
2022/03/13 01:52:51;;;;;;;4.60;3.70;;;11.50;1.00;;;;;;6178107;23;20192;-92
2022/03/13 01:59:23;;;;;;;4.67;3.83;;;11.40;1.00;;;;;;6101395;23;20159;-91
2022/03/13 02:01:57;;;;;;;6.17;3.90;;;11.30;1.00;;;;;;6100211;23;20158;-92
2022/03/13 02:05:03;;;;;;;5.63;3.50;;;11.30;1.00;;;;;;6164382;23;20392;-92
2022/03/13 02:07:40;;;;;;;5.23;4.00;;;11.40;1.00;;;;;;6164052;23;20161;-92
2022/03/13 02:14:06;;;;;;;5.50;4.03;;;11.30;1.00;;;;;;6099710;23;20199;-92
2022/03/13 02:17:05;;;;;;;6.30;3.97;;;11.40;1.00;;;;;;6082301;23;20207;-92
2022/03/13 02:19:57;;;;;;;5.23;3.73;;;11.40;1.00;;;;;;6083374;23;20183;-92
2022/03/13 02:22:27;;;;;;;5.40;3.70;;;11.40;1.00;;;;;;6121053;23;20159;-92
2022/03/13 02:25:05;;;;;;;5.20;3.93;;;11.40;1.00;;;;;;6098563;23;20197;-92
2022/03/13 02:27:52;;;;;;;5.53;4.40;;;11.40;1.00;;;;;;6099751;23;20143;-91
2022/03/13 02:30:42;;;;;;;6.33;4.33;;;11.40;1.00;;;;;;6122650;23;20836;-93
2022/03/13 02:40:36;;;;;;;6.70;4.80;;;11.40;1.00;;;;;;6104006;23;20197;-92
2022/03/13 02:43:22;;;;;;;5.97;4.77;;;11.40;1.00;;;;;;6103538;23;20155;-91
2022/03/13 02:46:21;;;;;;;5.47;4.47;;;11.40;1.00;;;;;;6078222;23;20155;-91
2022/03/13 02:48:49;;;;;;;5.10;4.57;;;11.40;1.00;;;;;;6100441;23;20155;-92
2022/03/13 02:51:56;;;;;;;5.40;4.20;;;11.60;1.00;;;;;;6147742;23;20154;-93
2022/03/13 02:54:39;;;;;;;6.93;4.13;;;11.40;1.00;;;;;;6165409;23;20181;-92
2022/03/13 02:58:11;;;;;;;5.90;4.47;;;11.40;1.00;;;;;;6165705;23;20168;-92
2022/03/13 03:01:00;;;;;;;7.17;4.77;;;11.40;1.00;;;;;;6185514;23;20161;-92
2022/03/13 03:04:14;;;;;;;6.80;4.53;;;11.30;1.00;;;;;;6191762;23;20150;-92
2022/03/13 03:07:37;;;;;;;6.27;4.87;;;11.30;1.00;;;;;;6189129;23;20657;-92
2022/03/13 03:10:13;;;;;;;6.90;4.47;;;11.40;1.00;;;;;;6146748;23;20524;-92
2022/03/13 03:12:58;;;;;;;6.57;4.40;;;11.40;1.00;;;;;;6193376;23;20173;-92
2022/03/13 03:15:46;;;;;;;7.17;4.37;;;11.40;1.00;;;;;;6178076;23;20220;-92
2022/03/13 03:18:48;;;;;;;6.10;4.77;;;11.30;1.00;;;;;;6187352;22;20169;-92
2022/03/13 03:24:36;;;;;;;5.53;4.77;;;11.30;1.00;;;;;;6101481;23;20170;-92
2022/03/13 03:27:40;;;;;;;5.30;4.60;;;11.40;1.00;;;;;;6075885;23;20198;-92
2022/03/13 03:30:31;;;;;;;6.50;5.10;;;11.40;1.00;;;;;;6074686;23;20159;-92
2022/03/13 03:33:45;;;;;;;5.60;4.70;;;11.50;1.00;;;;;;6073906;23;20584;-92
2022/03/13 03:36:47;;;;;;;6.20;4.40;;;11.40;1.00;;;;;;6021402;23;20155;-92
2022/03/13 03:39:23;;;;;;;6.20;4.80;;;11.40;1.00;;;;;;6084310;23;20218;-92
2022/03/13 03:42:27;;;;;;;5.73;4.77;;;11.50;1.00;;;;;;6167716;23;20149;-93
2022/03/13 03:45:31;;;;;;;5.20;4.40;;;11.50;1.00;;;;;;6172593;23;20610;-92
2022/03/13 03:48:02;;;;;;;5.57;4.67;;;11.40;1.00;;;;;;6186804;23;20637;-92
2022/03/13 03:50:38;;;;;;;5.93;4.70;;;11.40;1.00;;;;;;6165587;23;20591;-91
2022/03/13 03:57:17;;;;;;;5.60;4.20;;;11.70;1.00;;;;;;6122571;23;20188;-92
2022/03/13 04:00:00;;;;;;;5.97;4.67;;;11.90;1.00;;;;;;6071638;23;20161;-92
2022/03/13 04:02:37;;;;;;;5.87;4.47;;;11.90;1.00;;;;;;6050348;23;20675;-93
2022/03/13 04:06:00;;;;;;;5.57;4.73;;;11.90;1.00;;;;;;6141818;23;20157;-92
2022/03/13 04:15:00;;;;;;;5.87;4.90;;;11.90;1.00;;;;;;6139288;23;20158;-94
2022/03/13 04:18:01;;;;;;;5.60;4.97;;;11.90;1.00;;;;;;6127005;23;20146;-92
2022/03/13 04:21:33;;;;;;;;;;;;;;;;;;;;;
2022/03/13 04:24:43;;;;;;;6.20;4.47;;;11.80;1.00;;;;;;6152200;23;20146;-92
2022/03/13 04:27:50;;;;;;;7.17;4.90;;;11.80;1.00;;;;;;6124435;23;20157;-92
2022/03/13 04:30:54;;;;;;;;;;;;;;;;;;;;;
2022/03/13 04:33:54;;;;;;;6.27;5.30;;;11.80;1.00;;;;;;6143033;23;20227;-92
2022/03/13 04:41:23;;;;;;;6.57;5.77;;;11.50;1.00;;;;;;6192033;23;20165;-92
2022/03/13 04:44:14;;;;;;;8.23;6.47;;;11.70;1.00;;;;;;6055013;23;20164;-92
2022/03/13 04:47:03;;;;;;;8.73;6.60;;;11.60;1.00;;;;;;6070394;23;20240;-92
2022/03/13 04:50:47;;;;;;;10.37;7.47;;;11.40;1.00;;;;;;6061358;23;20176;-92
2022/03/13 04:53:03;;;;;;;9.10;7.27;;;11.60;1.00;;;;;;6073545;23;20271;-91
2022/03/13 04:56:19;;;;;;;8.23;6.63;;;11.70;1.00;;;;;;6082810;23;20175;-92
2022/03/13 04:59:12;;;;;;;8.40;7.03;;;11.70;1.00;;;;;;6163955;23;20212;-92
2022/03/13 05:02:12;;;;;;;9.83;7.70;;;11.80;1.00;;;;;;6160922;23;20169;-92
2022/03/13 05:05:09;;;;;;;7.90;6.93;;;11.70;1.00;;;;;;6162641;23;20216;-92
2022/03/13 05:07:41;;;;;;;10.50;7.90;;;11.70;1.00;;;;;;6163068;23;20161;-92
2022/03/13 05:14:26;;;;;;;10.90;7.73;;;11.60;1.00;;;;;;6137893;23;20210;-90
2022/03/13 05:17:36;;;;;;;10.13;8.40;;;11.70;99.90;;;;;;6129712;23;20159;-91
2022/03/13 05:30:48;;;;;;;;;;;;;;;;;;;;;
2022/03/13 05:33:46;;;;;;;11.87;9.03;;;11.70;99.90;;;;;;6015183;23;20281;-92
2022/03/13 05:36:52;;;;;;;10.83;8.80;;;11.70;99.90;;;;;;6008517;23;20182;-91
2022/03/13 05:39:40;;;;;;;10.90;9.60;;;11.70;99.90;;;;;;6022402;23;20172;-92
2022/03/13 05:42:50;;;;;;;11.67;9.63;;;11.60;99.90;;;;;;6020631;23;20164;-92
2022/03/13 05:45:51;;;;;;;;;;;;;;;;;;;;;
2022/03/13 05:59:26;;;;;;;;;;;;;;;;;;;;;
2022/03/13 06:02:22;;;;;;;12.00;10.33;;;11.20;1.00;;;;;;6014940;23;20197;-92
2022/03/13 06:05:33;;;;;;;16.00;12.20;;;11.10;1.00;;;;;;6017768;23;20158;-92
2022/03/13 06:08:25;;;;;;;14.93;11.13;;;11.10;1.00;;;;;;6160589;23;20165;-92
2022/03/13 06:11:29;;;;;;;;;;;;;;;;;;;;;
2022/03/13 06:14:54;;;;;;;14.57;12.40;;;11.20;1.00;;;;;;6190695;23;20272;-92
2022/03/13 06:20:48;;;;;;;17.57;12.87;;;11.20;1.00;;;;;;6178696;23;20182;-93
2022/03/13 06:23:43;;;;;;;14.60;12.13;;;11.30;1.00;;;;;;6157504;23;20625;-92
2022/03/13 06:26:45;;;;;;;16.03;11.97;;;11.30;1.00;;;;;;6162207;23;20180;-93
2022/03/13 06:29:30;;;;;;;;;;;;;;;;;;;;;
2022/03/13 06:32:29;;;;;;;14.00;12.00;;;11.60;99.90;;;;;;6186205;23;20205;-92
2022/03/13 06:35:04;;;;;;;14.77;12.70;;;11.40;99.90;;;;;;6163823;23;20185;-92
2022/03/13 06:41:27;;;;;;;19.00;13.10;;;11.30;99.90;;;;;;6148960;23;20603;-92
2022/03/13 06:47:44;;;;;;;15.13;12.97;;;11.30;99.90;;;;;;5989146;23;20162;-92
2022/03/13 06:50:47;;;;;;;15.93;13.00;;;11.30;99.90;;;;;;6173799;23;20161;-92
2022/03/13 06:53:35;;;;;;;15.60;13.07;;;11.20;99.90;;;;;;6178573;23;20219;-91
2022/03/13 06:56:31;;;;;;;14.83;12.77;;;11.30;99.90;;;;;;6191202;23;20157;-92
2022/03/13 06:59:25;;;;;;;16.30;13.80;;;11.40;99.90;;;;;;6142930;23;20669;-91
2022/03/13 07:02:28;;;;;;;17.33;13.53;;;11.40;99.90;;;;;;6148183;23;20173;-92
2022/03/13 07:05:24;;;;;;;16.13;12.80;;;11.60;99.90;;;;;;6161515;23;20173;-91
2022/03/13 07:15:31;;;;;;;15.47;12.57;;;11.70;1.00;;;;;;6048739;23;20172;-92
2022/03/13 07:19:00;;;;;;;15.67;12.63;;;11.70;99.90;;;;;;6044543;23;20256;-92
2022/03/13 07:25:11;;;;;;;14.33;12.33;;;11.70;1.00;;;;;;6185004;23;20158;-93
2022/03/13 07:27:51;;;;;;;15.90;12.97;;;11.80;99.90;;;;;;6169325;23;20590;-92
2022/03/13 07:30:25;;;;;;;14.27;11.87;;;12.00;13.90;;;;;;6167596;23;20196;-92
2022/03/13 07:33:26;;;;;;;14.40;12.50;;;12.00;99.90;;;;;;6175375;22;20164;-92
2022/03/13 07:37:10;;;;;;;16.37;12.67;;;12.00;1.00;;;;;;6182936;23;20157;-92
2022/03/13 07:40:07;;;;;;;13.90;11.87;;;12.00;1.00;;;;;;6197320;23;20161;-92
2022/03/13 07:43:25;;;;;;;15.57;12.50;;;12.10;99.90;;;;;;6172857;23;20162;-92
2022/03/13 07:46:23;;;;;;;14.23;12.30;;;12.20;1.00;;;;;;6049479;23;20239;-90
2022/03/13 07:49:13;;;;;;;14.80;11.83;;;12.20;99.90;;;;;;6078371;23;20152;-91
2022/03/13 07:52:26;;;;;;;14.27;11.83;;;12.30;99.90;;;;;;6037048;23;20171;-90
2022/03/13 07:55:47;;;;;;;14.60;11.53;;;12.50;99.90;;;;;;6085901;23;20244;-91
2022/03/13 07:59:07;;;;;;;15.47;12.37;;;12.50;1.00;;;;;;6065315;23;20181;-92
2022/03/13 08:01:50;;;;;;;14.17;11.60;;;12.60;1.00;;;;;;6087268;23;20267;-90
2022/03/13 08:05:01;;;;;;;13.87;12.03;;;12.60;99.90;;;;;;6062635;23;20204;-91
2022/03/13 08:08:08;;;;;;;12.17;10.80;;;12.70;99.90;;;;;;6059261;23;20241;-90
2022/03/13 08:11:28;;;;;;;15.63;11.80;;;12.80;1.00;;;;;;6000137;23;20243;-92
2022/03/13 08:14:40;;;;;;;;;;;;;;;;;;;;;
2022/03/13 08:31:00;;;;;;;13.23;10.83;;;13.10;1.00;;;;;;6183765;23;20143;-91
2022/03/13 08:34:06;;;;;;;;;;;;;;;;;;;;;
2022/03/13 08:37:21;;;;;;;11.57;10.07;;;12.80;1.00;;;;;;6041684;23;20158;-89
2022/03/13 08:43:31;;;;;;;12.77;10.33;;;13.10;1.00;;;;;;6062910;23;20194;-88
2022/03/13 08:50:03;;;;;;;11.07;9.87;;;13.10;1.00;;;;;;6003863;24;20166;-89
2022/03/13 08:52:48;;;;;;;12.07;10.07;;;13.20;99.90;;;;;;5948256;24;20219;-89
2022/03/13 08:56:09;;;;;;;10.33;9.00;;;13.20;99.90;;;;;;6098149;23;20175;-90
2022/03/13 09:02:44;;;;;;;10.77;8.83;;;13.30;1.00;;;;;;6091300;23;20213;-91
2022/03/13 09:05:40;;;;;;;10.87;8.97;;;13.40;33.90;;;;;;6114639;23;20165;-92
2022/03/13 09:08:48;;;;;;;9.23;7.70;;;13.40;1.00;;;;;;6057221;23;20157;-91
2022/03/13 09:12:02;;;;;;;8.87;7.37;;;13.50;1.00;;;;;;6108751;23;20167;-91
2022/03/13 09:15:00;;;;;;;11.73;7.43;;;13.60;1.00;;;;;;6086063;23;20180;-90
2022/03/13 09:17:53;;;;;;;10.33;7.70;;;13.60;99.90;;;;;;6073775;23;20177;-90
2022/03/13 09:20:43;;;;;;;7.93;6.80;;;13.60;99.90;;;;;;6086547;23;20254;-91
2022/03/13 09:23:42;;;;;;;9.13;7.47;;;13.90;99.90;;;;;;6123560;23;20670;-90
2022/03/13 09:26:26;;;;;;;8.27;6.70;;;14.20;34.80;;;;;;6117982;23;20204;-90
2022/03/13 09:29:36;;;;;;;7.63;6.20;;;14.00;1.00;;;;;;6125025;23;20196;-88
2022/03/13 09:35:38;;;;;;;9.53;6.70;;;13.90;1.00;;;;;;6143121;23;20164;-90
2022/03/13 09:38:25;;;;;;;6.30;4.90;;;14.20;1.00;;;;;;6109677;23;20213;-89
2022/03/13 09:40:55;;;;;;;6.67;5.70;;;14.30;1.00;;;;;;6144599;23;20158;-90
2022/03/13 09:43:36;;;;;;;6.83;5.47;;;14.40;99.90;;;;;;6186930;23;20156;-90
2022/03/13 09:46:20;;;;;;;7.17;5.57;;;14.30;99.90;;;;;;6198249;23;20158;-90
2022/03/13 09:49:11;;;;;;;6.90;5.10;;;14.20;99.90;;;;;;6172425;23;20226;-91
2022/03/13 09:52:09;;;;;;;6.10;5.17;;;14.50;99.90;;;;;;6170672;23;20153;-90
2022/03/13 09:54:41;;;;;;;6.33;5.37;;;14.40;99.90;;;;;;6172064;23;20172;-91
2022/03/13 09:57:59;;;;;;;5.37;4.27;;;14.40;99.90;;;;;;6191444;23;20168;-89
2022/03/13 10:00:38;;;;;;;5.70;4.63;;;14.50;99.90;;;;;;6178079;23;20149;-91
2022/03/13 10:03:37;;;;;;;6.93;5.30;;;14.70;99.90;;;;;;6177215;23;20176;-90
2022/03/13 10:09:49;;;;;;;6.00;4.87;;;14.90;99.90;;;;;;6196434;23;20179;-90
2022/03/13 10:12:50;;;;;;;5.87;5.00;;;15.10;99.90;;;;;;6172374;23;20189;-90
2022/03/13 10:15:20;;;;;;;6.00;5.33;;;15.10;99.90;;;;;;6175287;23;20157;-88
2022/03/13 10:17:55;;;;;;;7.80;5.67;;;15.10;99.90;;;;;;6196374;23;20173;-91
2022/03/13 10:21:17;;;;;;;6.67;4.60;;;15.10;99.90;;;;;;6151647;23;20176;-91
2022/03/13 10:24:05;;;;;;;7.10;4.83;;;15.20;99.90;;;;;;6163567;23;20157;-92
2022/03/13 10:27:00;;;;;;;;;;;;;;;;;;;;;
2022/03/13 10:30:07;;;;;;;6.50;5.17;;;15.20;33.90;;;;;;6189999;23;20176;-91
2022/03/13 10:33:13;;;;;;;;;;;;;;;;;;;;;
2022/03/13 10:43:39;;;;;;;7.97;4.80;;;15.50;1.00;;;;;;6060802;23;20164;-94
2022/03/13 10:46:35;;;;;;;7.50;4.60;;;15.60;1.00;;;;;;6078580;23;20161;-93
2022/03/13 10:53:30;;;;;;;;;;;;;;;;;;;;;
2022/03/13 10:56:14;;;;;;;5.70;4.37;;;15.80;1.00;;;;;;6152114;23;20177;-90
2022/03/13 10:58:46;;;;;;;7.40;5.03;;;15.50;1.00;;;;;;6174764;23;20161;-90
2022/03/13 11:01:16;;;;;;;6.53;4.70;;;15.40;1.00;;;;;;6177527;22;20150;-92
2022/03/13 11:04:06;;;;;;;6.00;4.70;;;15.50;1.00;;;;;;6167839;23;20306;-86
2022/03/13 11:06:35;;;;;;;7.33;5.00;;;15.60;1.00;;;;;;6191804;23;20138;-86
2022/03/13 11:09:04;;;;;;;8.87;5.30;;;15.70;1.00;;;;;;6168395;23;20206;-84
2022/03/13 11:11:40;;;;;;;5.20;4.20;;;16.00;1.00;;;;;;6168590;23;20250;-88
2022/03/13 11:14:08;;;;;;;5.03;4.17;;;16.20;1.00;;;;;;6171484;23;20186;-86
2022/03/13 11:16:35;;;;;;;11.10;4.90;;;16.40;1.00;;;;;;6174291;23;20662;-85
2022/03/13 11:19:05;;;;;;;8.27;5.30;;;16.60;1.00;;;;;;6168458;23;20175;-85
2022/03/13 11:21:33;;;;;;;8.00;4.60;;;16.80;1.00;;;;;;6143139;23;20293;-85
2022/03/13 11:24:37;;;;;;;5.63;4.03;;;16.80;1.00;;;;;;6168534;23;20232;-87
2022/03/13 11:27:10;;;;;;;5.13;4.20;;;16.50;1.00;;;;;;6192688;23;20130;-87
2022/03/13 11:29:51;;;;;;;8.23;4.30;;;16.30;1.00;;;;;;6144676;23;20288;-86
2022/03/13 11:32:40;;;;;;;7.13;4.70;;;16.30;1.00;;;;;;6164988;23;20185;-84
2022/03/13 11:35:21;;;;;;;6.20;4.30;;;16.30;1.00;;;;;;6193234;23;20145;-84
2022/03/13 11:38:27;;;;;;;6.50;4.47;;;16.20;1.00;;;;;;6182077;22;20153;-92
2022/03/13 11:41:02;;;;;;;7.23;4.77;;;16.10;1.00;;;;;;6207188;23;20142;-86
2022/03/13 11:43:46;;;;;;;6.43;4.90;;;16.20;1.00;;;;;;6157431;23;20134;-93
2022/03/13 11:46:38;;;;;;;5.17;4.43;;;16.40;1.00;;;;;;6144489;23;20184;-88
2022/03/13 11:49:39;;;;;;;7.33;4.87;;;16.20;1.00;;;;;;6143424;23;20225;-89
2022/03/13 11:52:17;;;;;;;5.23;4.23;;;15.90;1.00;;;;;;6173396;23;20169;-86
2022/03/13 11:58:03;;;;;;;5.33;4.00;;;16.10;1.00;;;;;;6198456;23;20496;-88
2022/03/13 12:00:30;;;;;;;5.80;3.90;;;16.10;1.00;;;;;;6170190;23;20150;-89
2022/03/13 12:03:12;;;;;;;7.00;3.93;;;15.70;1.00;;;;;;6197227;23;20141;-88
2022/03/13 12:05:48;;;;;;;5.07;4.00;;;16.00;1.00;;;;;;6177412;23;20156;-89
2022/03/13 12:08:19;;;;;;;6.07;3.87;;;15.90;1.00;;;;;;6205043;23;20141;-89
2022/03/13 12:10:49;;;;;;;5.40;3.83;;;15.80;1.00;;;;;;6205450;23;20172;-88
2022/03/13 12:13:22;;;;;;;5.93;4.10;;;15.80;1.00;;;;;;6182402;23;20215;-88
2022/03/13 12:16:10;;;;;;;5.30;4.00;;;16.00;1.00;;;;;;6184014;23;20177;-90
2022/03/13 12:18:39;;;;;;;6.57;3.90;;;16.00;1.00;;;;;;6175270;23;20201;-89
2022/03/13 12:21:10;;;;;;;6.97;4.57;;;16.10;1.00;;;;;;6179417;23;20165;-88
2022/03/13 12:23:39;;;;;;;5.67;4.27;;;16.10;1.00;;;;;;6162215;23;20145;-85
2022/03/13 12:26:39;;;;;;;8.47;4.87;;;16.30;1.00;;;;;;6162588;22;20148;-91
2022/03/13 12:29:07;;;;;;;5.17;4.10;;;16.50;1.00;;;;;;6184237;23;20157;-91
2022/03/13 12:32:01;;;;;;;4.73;3.50;;;16.50;1.00;;;;;;6185952;23;20146;-89
2022/03/13 12:34:46;;;;;;;6.07;3.13;;;16.50;1.00;;;;;;6185774;23;20185;-89
2022/03/13 12:37:17;;;;;;;4.70;3.13;;;16.50;1.00;;;;;;6185416;23;20170;-90
2022/03/13 12:43:09;;;;;;;5.13;3.33;;;16.50;1.00;;;;;;6212586;22;20153;-90
2022/03/13 12:45:51;;;;;;;4.17;3.47;;;16.60;1.00;;;;;;6159129;22;20181;-90
2022/03/13 12:48:17;;;;;;;5.43;3.33;;;16.90;1.00;;;;;;6186436;22;20134;-92
2022/03/13 12:50:49;;;;;;;5.43;3.80;;;17.00;1.00;;;;;;6162304;22;20153;-89
2022/03/13 12:53:50;;;;;;;3.87;2.93;;;17.20;1.00;;;;;;6187120;22;20188;-91
2022/03/13 12:56:18;;;;;;;4.00;2.87;;;17.20;1.00;;;;;;6186697;23;20179;-88
2022/03/13 12:59:06;;;;;;;4.33;3.00;;;17.10;1.00;;;;;;6162178;23;20149;-89
2022/03/13 13:01:37;;;;;;;4.33;2.83;;;17.10;1.00;;;;;;6184450;23;20172;-90
2022/03/13 13:04:42;;;;;;;3.83;2.73;;;17.30;1.00;;;;;;6181695;22;20134;-89
2022/03/13 13:07:24;;;;;;;3.93;2.30;;;17.00;1.00;;;;;;6182716;23;20135;-89
2022/03/13 13:09:58;;;;;;;4.10;2.50;;;17.00;1.00;;;;;;6185078;23;20150;-92
2022/03/13 13:12:30;;;;;;;4.23;2.87;;;17.10;1.00;;;;;;6183463;23;20261;-90
2022/03/13 13:15:00;;;;;;;4.63;3.33;;;17.30;1.00;;;;;;6180179;23;20179;-91
2022/03/13 13:17:29;;;;;;;4.50;3.10;;;17.20;1.00;;;;;;6178909;23;20170;-91
2022/03/13 13:20:21;;;;;;;4.70;3.43;;;17.20;1.00;;;;;;6198915;23;20192;-91
2022/03/13 13:23:10;;;;;;;4.40;2.73;;;17.30;1.00;;;;;;6174016;23;20219;-89
2022/03/13 13:25:36;;;;;;;5.17;2.90;;;17.50;1.00;;;;;;6151534;23;20142;-91
2022/03/13 13:28:14;;;;;;;5.40;2.83;;;17.40;1.00;;;;;;6142692;23;20213;-92
2022/03/13 13:31:06;;;;;;;3.17;2.40;;;17.30;1.00;;;;;;6145623;23;20235;-89
2022/03/13 13:33:48;;;;;;;4.03;2.63;;;17.20;1.00;;;;;;6173293;23;20165;-93
2022/03/13 13:36:28;;;;;;;3.40;2.53;;;17.20;1.00;;;;;;6171904;23;20587;-91
2022/03/13 13:39:22;;;;;;;3.10;2.53;;;17.10;1.00;;;;;;6173771;23;20158;-90
2022/03/13 13:42:06;;;;;;;3.13;2.40;;;17.00;1.00;;;;;;6178792;23;20158;-89
2022/03/13 13:44:36;;;;;;;3.47;2.97;;;17.00;1.00;;;;;;6178477;23;20142;-90
2022/03/13 13:47:05;;;;;;;3.97;3.23;;;17.10;1.00;;;;;;6177199;23;20151;-91
2022/03/13 13:49:38;;;;;;;3.87;3.07;;;17.20;1.00;;;;;;6172418;23;20171;-93
2022/03/13 13:52:11;;;;;;;3.43;3.03;;;17.30;1.00;;;;;;6169721;23;20158;-89
2022/03/13 13:54:38;;;;;;;4.13;2.90;;;17.50;1.00;;;;;;6172349;23;20162;-91
2022/03/13 13:57:25;;;;;;;5.27;2.70;;;17.70;1.00;;;;;;6173692;23;20193;-92
2022/03/13 14:00:01;;;;;;;3.60;2.50;;;17.80;1.00;;;;;;6179632;23;20159;-91
2022/03/13 14:02:29;;;;;;;5.07;3.17;;;17.60;1.00;;;;;;6179182;23;20169;-91
2022/03/13 14:05:39;;;;;;;4.40;2.87;;;17.70;1.00;;;;;;6180810;23;20125;-91
2022/03/13 14:08:10;;;;;;;3.40;2.50;;;18.00;1.00;;;;;;6174497;23;20169;-89
2022/03/13 14:10:49;;;;;;;4.93;2.90;;;17.70;1.00;;;;;;6151794;23;20200;-91
2022/03/13 14:13:16;;;;;;;3.80;2.70;;;17.40;1.00;;;;;;6179605;23;20207;-92
2022/03/13 14:15:46;;;;;;;5.33;2.90;;;17.30;1.00;;;;;;6181533;23;20148;-90
2022/03/13 14:18:19;;;;;;;3.50;2.90;;;17.10;1.00;;;;;;6181786;23;20226;-90
2022/03/13 14:21:12;;;;;;;3.33;2.47;;;17.00;1.00;;;;;;6179961;23;20217;-90
2022/03/13 14:23:44;;;;;;;5.00;3.00;;;17.10;1.00;;;;;;6184589;23;20143;-88
2022/03/13 14:26:16;;;;;;;6.33;3.50;;;17.20;1.00;;;;;;6183544;23;20174;-92
2022/03/13 14:28:42;;;;;;;5.30;3.67;;;17.00;1.00;;;;;;6183610;23;20146;-90
2022/03/13 14:31:38;;;;;;;3.60;2.77;;;17.20;1.00;;;;;;6183132;23;20185;-91
2022/03/13 14:34:07;;;;;;;4.50;3.30;;;17.00;1.00;;;;;;6181715;23;20237;-91
2022/03/13 14:36:34;;;;;;;4.00;3.10;;;16.80;1.00;;;;;;6131414;23;20206;-89
2022/03/13 14:39:04;;;;;;;4.83;3.00;;;16.80;1.00;;;;;;6183399;23;20556;-89
2022/03/13 14:41:32;;;;;;;5.47;3.23;;;16.60;1.00;;;;;;6204413;23;20229;-90
2022/03/13 14:44:14;;;;;;;4.77;3.23;;;16.50;1.00;;;;;;6173215;23;20139;-90
2022/03/13 14:47:23;;;;;;;3.77;3.33;;;16.40;1.00;;;;;;6170956;23;20145;-89
2022/03/13 14:53:34;;;;;;;4.93;3.67;;;16.20;1.00;;;;;;6173723;23;20190;-91
2022/03/13 14:56:08;;;;;;;4.77;3.07;;;16.10;1.00;;;;;;6174302;23;20142;-89
2022/03/13 14:58:36;;;;;;;4.20;3.10;;;16.20;1.00;;;;;;6146966;23;20167;-88
2022/03/13 15:01:09;;;;;;;7.70;3.40;;;16.10;1.00;;;;;;6165306;23;20146;-90
2022/03/13 15:03:39;;;;;;;3.30;2.43;;;16.10;1.00;;;;;;6179320;23;20145;-87
2022/03/13 15:06:07;;;;;;;3.40;2.40;;;16.10;1.00;;;;;;6168144;23;20165;-88
2022/03/13 15:08:39;;;;;;;4.03;2.50;;;16.00;1.00;;;;;;6164453;23;20158;-88
2022/03/13 15:11:52;;;;;;;5.07;3.60;;;15.80;1.00;;;;;;6165914;23;20165;-88
2022/03/13 15:14:27;;;;;;;7.83;5.63;;;15.70;1.00;;;;;;6152579;23;20166;-88
2022/03/13 15:17:00;;;;;;;2.63;2.30;;;15.70;1.00;;;;;;6170167;23;20213;-88
2022/03/13 15:19:27;;;;;;;3.33;2.50;;;15.60;1.00;;;;;;6171344;23;20165;-88
2022/03/13 15:22:20;;;;;;;3.57;2.97;;;15.60;1.00;;;;;;6176465;23;20221;-88
2022/03/13 15:24:54;;;;;;;4.03;2.90;;;15.50;1.00;;;;;;6170804;23;20147;-95
2022/03/13 15:27:21;;;;;;;2.83;2.10;;;15.70;1.00;;;;;;6176754;23;20138;-90
2022/03/13 15:29:53;;;;;;;3.73;2.57;;;15.60;1.00;;;;;;6175694;23;20158;-91
2022/03/13 15:32:22;;;;;;;5.27;2.53;;;15.60;1.00;;;;;;6173807;23;20193;-89
2022/03/13 15:34:57;;;;;;;3.63;2.50;;;15.60;1.00;;;;;;6171896;23;20158;-90
2022/03/13 15:38:04;;;;;;;3.80;2.37;;;15.40;1.00;;;;;;6171236;23;20677;-89
2022/03/13 15:40:35;;;;;;;2.90;2.27;;;15.40;1.00;;;;;;6173480;23;20666;-90
2022/03/13 15:43:08;;;;;;;4.20;2.30;;;15.30;1.00;;;;;;6148728;23;20155;-91
2022/03/13 15:45:48;;;;;;;4.83;2.73;;;15.20;5.10;;;;;;6174493;23;20134;-92
2022/03/13 15:49:34;;;;;;;3.93;2.60;;;15.10;49.20;;;;;;6169593;23;20157;-90
2022/03/13 15:52:21;;;;;;;5.83;3.40;;;15.00;73.00;;;;;;6083872;23;20234;-91
2022/03/13 15:54:49;;;;;;;4.43;2.93;;;15.00;99.90;;;;;;6036142;23;20175;-94
2022/03/13 15:57:56;;;;;;;5.27;3.50;;;14.90;99.90;;;;;;6127279;23;20465;-89
2022/03/13 16:00:26;;;;;;;5.03;3.60;;;14.80;99.90;;;;;;6167586;23;20149;-90
2022/03/13 16:03:10;;;;;;;4.27;3.10;;;14.80;99.90;;;;;;6169103;23;20145;-91
2022/03/13 16:05:59;;;;;;;4.30;2.60;;;14.80;99.90;;;;;;6170271;23;20144;-90
2022/03/13 16:08:48;;;;;;;3.53;2.60;;;14.60;99.90;;;;;;6170463;23;20160;-91
2022/03/13 16:11:39;;;;;;;8.20;1.87;;;14.50;99.90;;;;;;6169374;23;20200;-89
2022/03/13 16:14:36;;;;;;;5.33;1.70;;;14.40;99.90;;;;;;6171327;23;20188;-90
2022/03/13 16:17:04;;;;;;;2.60;1.80;;;14.50;99.90;;;;;;6174129;23;20169;-89
2022/03/13 16:20:09;;;;;;;5.10;2.00;;;14.40;99.90;;;;;;6176479;23;20165;-88
2022/03/13 16:23:04;;;;;;;4.10;2.03;;;14.40;99.90;;;;;;6179273;23;20152;-88
2022/03/13 16:25:33;;;;;;;3.80;2.03;;;14.40;99.90;;;;;;6177685;23;20183;-90
2022/03/13 16:28:02;;;;;;;3.63;2.40;;;14.40;99.90;;;;;;6176872;23;20166;-91
2022/03/13 16:33:50;;;;;;;3.63;1.67;;;14.30;99.90;;;;;;6179809;23;20239;-90
2022/03/13 16:36:29;;;;;;;2.57;1.43;;;14.10;1.00;;;;;;6177296;23;20164;-91
2022/03/13 16:38:59;;;;;;;2.20;1.60;;;14.10;1.00;;;;;;6173659;23;20203;-89
2022/03/13 16:41:34;;;;;;;3.93;1.80;;;14.10;1.00;;;;;;6179989;23;20175;-91
2022/03/13 16:44:22;;;;;;;2.30;1.60;;;14.10;1.00;;;;;;6173707;23;20155;-92
2022/03/13 16:46:51;;;;;;;2.67;1.20;;;14.10;1.00;;;;;;6147936;23;20171;-93
2022/03/13 16:49:17;;;;;;;1.83;1.30;;;13.90;1.00;;;;;;6148625;23;20163;-89
2022/03/13 16:52:04;;;;;;;1.60;1.10;;;13.80;1.00;;;;;;6174678;23;20162;-92
2022/03/13 16:54:38;;;;;;;2.20;1.53;;;13.70;99.90;;;;;;6176158;23;20158;-90
2022/03/13 16:57:31;;;;;;;2.00;1.50;;;13.60;99.90;;;;;;6169051;23;20148;-91
2022/03/13 16:59:57;;;;;;;2.10;1.37;;;13.60;99.90;;;;;;6176360;23;20135;-90
2022/03/13 17:02:34;;;;;;;2.93;1.53;;;13.50;99.90;;;;;;6174478;23;20162;-89
2022/03/13 17:05:16;;;;;;;4.03;1.70;;;13.50;1.00;;;;;;6150424;23;20162;-90
2022/03/13 17:07:51;;;;;;;3.03;1.47;;;13.50;1.00;;;;;;6176198;23;20169;-87
2022/03/13 17:10:24;;;;;;;2.80;1.80;;;13.40;1.00;;;;;;6177004;23;20161;-89
2022/03/13 17:12:58;;;;;;;3.83;2.17;;;13.40;1.00;;;;;;6169456;23;20175;-87
2022/03/13 17:15:26;;;;;;;2.90;1.80;;;13.50;1.00;;;;;;6168073;23;20158;-89
2022/03/13 17:17:57;;;;;;;2.17;1.40;;;13.50;1.00;;;;;;6165967;23;20623;-88
2022/03/13 17:20:31;;;;;;;2.63;1.57;;;13.60;1.00;;;;;;6172719;23;20202;-87
2022/03/13 17:23:00;;;;;;;2.37;1.57;;;13.40;1.00;;;;;;6173776;23;20150;-91